createdAt,value
2022-11-29T00:01:27.115Z,32.90
2022-11-29T00:03:55.215Z,22.75
2022-11-29T00:06:24.766Z,24.95
2022-11-29T00:08:51.953Z,24.05
2022-11-29T00:11:40.576Z,24.75
2022-11-29T00:14:10.060Z,28.60
2022-11-29T00:16:37.597Z,28.98
2022-11-29T00:19:05.004Z,25.73
2022-11-29T00:21:32.160Z,21.38
2022-11-29T00:23:59.806Z,21.95
2022-11-29T00:26:27.023Z,21.30
2022-11-29T00:28:54.475Z,26.75
2022-11-29T00:31:25.255Z,21.73
2022-11-29T00:33:53.057Z,32.28
2022-11-29T00:36:20.703Z,25.60
2022-11-29T00:38:47.928Z,22.85
2022-11-29T00:41:15.133Z,17.75
2022-11-29T00:43:42.375Z,17.40
2022-11-29T00:46:10.190Z,18.05
2022-11-29T00:48:37.554Z,17.20
2022-11-29T00:51:06.381Z,18.98
2022-11-29T00:53:35.206Z,22.38
2022-11-29T00:56:03.052Z,17.65
2022-11-29T00:58:30.475Z,20.35
2022-11-29T01:00:57.753Z,17.92
2022-11-29T01:03:25.542Z,20.17
2022-11-29T01:05:53.125Z,16.33
2022-11-29T01:08:20.465Z,19.95
2022-11-29T01:10:47.657Z,14.90
2022-11-29T01:13:15.111Z,15.45
2022-11-29T01:15:42.361Z,15.18
2022-11-29T01:18:09.603Z,15.20
2022-11-29T01:20:36.782Z,20.45
2022-11-29T01:23:04.020Z,16.20
2022-11-29T01:25:32.253Z,15.57
2022-11-29T01:27:59.552Z,17.17
2022-11-29T01:30:26.798Z,15.30
2022-11-29T01:32:53.976Z,14.02
2022-11-29T01:35:21.124Z,15.75
2022-11-29T01:37:48.200Z,14.15
2022-11-29T01:40:15.419Z,15.15
2022-11-29T01:42:42.593Z,16.33
2022-11-29T01:45:26.579Z,13.63
2022-11-29T01:47:57.340Z,15.27
2022-11-29T01:50:24.859Z,14.30
2022-11-29T01:52:52.423Z,14.10
2022-11-29T01:55:19.855Z,16.25
2022-11-29T01:57:47.465Z,14.77
2022-11-29T02:00:17.894Z,19.35
2022-11-29T02:02:59.395Z,21.55
2022-11-29T02:05:26.979Z,18.05
2022-11-29T02:07:57.840Z,19.48
2022-11-29T02:10:36.150Z,16.08
2022-11-29T02:13:27.326Z,18.98
2022-11-29T02:16:05.337Z,18.92
2022-11-29T02:18:54.063Z,15.38
2022-11-29T02:21:42.430Z,21.13
2022-11-29T02:24:15.043Z,14.50
2022-11-29T02:27:12.270Z,13.20
2022-11-29T02:29:49.709Z,15.88
2022-11-29T02:32:55.343Z,16.42
2022-11-29T02:36:00.176Z,15.98
2022-11-29T02:38:48.064Z,18.98
2022-11-29T02:41:42.759Z,18.48
2022-11-29T02:44:18.910Z,25.92
2022-11-29T02:47:15.254Z,18.13
2022-11-29T02:50:16.185Z,15.90
2022-11-29T02:52:56.814Z,16.92
2022-11-29T02:55:51.648Z,15.77
2022-11-29T02:58:42.092Z,16.50
2022-11-29T03:01:32.016Z,15.60
2022-11-29T03:04:21.738Z,14.15
2022-11-29T03:07:15.141Z,18.67
2022-11-29T03:09:55.898Z,20.88
2022-11-29T03:12:40.531Z,17.05
2022-11-29T03:15:23.860Z,15.15
2022-11-29T03:17:54.135Z,18.65
2022-11-29T03:20:37.903Z,17.33
2022-11-29T03:23:23.219Z,20.45
2022-11-29T03:26:07.799Z,20.23
2022-11-29T03:28:45.749Z,16.02
2022-11-29T03:31:23.519Z,19.63
2022-11-29T03:34:05.438Z,18.48
2022-11-29T03:36:49.509Z,21.88
2022-11-29T03:39:42.173Z,22.45
2022-11-29T03:42:19.914Z,35.53
2022-11-29T03:45:02.639Z,37.42
2022-11-29T03:47:37.346Z,45.92
2022-11-29T03:50:11.583Z,56.25
2022-11-29T03:53:08.089Z,43.92
2022-11-29T03:56:24.104Z,46.72
2022-11-29T03:59:02.164Z,30.77
2022-11-29T04:01:29.278Z,28.40
2022-11-29T04:04:14.799Z,42.30
2022-11-29T04:07:09.548Z,34.92
2022-11-29T04:13:10.819Z,27.77
2022-11-29T04:15:59.878Z,31.00
2022-11-29T04:19:04.284Z,25.95
2022-11-29T04:21:51.639Z,28.08
2022-11-29T04:24:45.159Z,31.60
2022-11-29T04:27:42.684Z,20.83
2022-11-29T04:30:18.584Z,22.27
2022-11-29T04:33:10.301Z,19.42
2022-11-29T04:35:55.969Z,37.22
2022-11-29T04:38:34.778Z,16.75
2022-11-29T04:41:30.123Z,17.88
2022-11-29T04:44:23.467Z,27.70
2022-11-29T04:47:15.876Z,69.38
2022-11-29T04:50:14.025Z,13.95
2022-11-29T04:53:11.275Z,30.40
2022-11-29T04:56:13.725Z,16.13
2022-11-29T04:59:16.042Z,13.25
2022-11-29T05:02:24.663Z,14.48
2022-11-29T05:05:13.203Z,13.90
2022-11-29T05:07:46.992Z,14.80
2022-11-29T05:10:52.800Z,13.32
2022-11-29T05:13:46.069Z,14.27
2022-11-29T05:16:37.400Z,22.75
2022-11-29T05:19:13.337Z,19.30
2022-11-29T05:22:08.370Z,21.08
2022-11-29T05:25:10.497Z,15.48
2022-11-29T05:27:58.433Z,27.63
2022-11-29T05:30:48.574Z,16.65
2022-11-29T05:33:40.336Z,16.23
2022-11-29T05:36:50.730Z,18.17
2022-11-29T05:39:36.635Z,15.63
2022-11-29T05:42:36.975Z,15.13
2022-11-29T05:45:23.786Z,17.67
2022-11-29T05:48:07.126Z,15.82
2022-11-29T05:50:40.382Z,15.70
2022-11-29T05:53:37.316Z,16.83
2022-11-29T05:56:26.205Z,14.35
2022-11-29T05:59:22.107Z,14.38
2022-11-29T06:02:19.245Z,12.38
2022-11-29T06:05:00.150Z,15.15
2022-11-29T06:07:33.634Z,15.82
2022-11-29T06:10:15.310Z,24.58
2022-11-29T06:12:45.770Z,13.18
2022-11-29T06:15:23.565Z,13.25
2022-11-29T06:18:23.107Z,38.85
2022-11-29T06:21:25.512Z,24.48
2022-11-29T06:24:25.915Z,17.88
2022-11-29T06:27:15.053Z,37.50
2022-11-29T06:30:03.600Z,23.17
2022-11-29T06:32:52.347Z,10.52
2022-11-29T06:35:51.581Z,19.83
2022-11-29T06:38:27.446Z,20.42
2022-11-29T06:41:01.356Z,14.18
2022-11-29T06:43:30.233Z,29.05
2022-11-29T06:46:34.290Z,14.18
2022-11-29T06:49:20.290Z,13.53
2022-11-29T06:52:18.118Z,19.98
2022-11-29T06:54:59.888Z,14.25
2022-11-29T06:57:45.463Z,23.67
2022-11-29T07:00:16.449Z,30.85
2022-11-29T07:02:48.599Z,15.98
2022-11-29T07:05:30.644Z,30.65
2022-11-29T07:08:19.401Z,61.13
2022-11-29T07:10:50.248Z,23.50
2022-11-29T07:13:19.361Z,21.27
2022-11-29T07:16:06.610Z,19.70
2022-11-29T07:18:38.748Z,21.02
2022-11-29T07:21:21.363Z,16.15
2022-11-29T07:24:01.565Z,12.63
2022-11-29T07:27:21.363Z,14.73
2022-11-29T07:30:05.248Z,11.57
2022-11-29T07:32:50.185Z,20.25
2022-11-29T07:35:31.493Z,13.55
2022-11-29T07:38:34.063Z,11.05
2022-11-29T07:41:07.252Z,9.73
2022-11-29T07:43:52.380Z,11.43
2022-11-29T07:46:19.656Z,8.50
2022-11-29T07:48:46.857Z,7.25
2022-11-29T07:51:14.522Z,6.03
2022-11-29T07:53:44.139Z,6.93
2022-11-29T07:56:12.478Z,5.53
2022-11-29T07:58:40.059Z,9.07
2022-11-29T08:01:07.456Z,7.00
2022-11-29T08:03:35.664Z,7.43
2022-11-29T08:06:03.403Z,5.78
2022-11-29T08:08:30.748Z,7.68
2022-11-29T08:10:58.036Z,7.55
2022-11-29T08:13:25.376Z,5.13
2022-11-29T08:15:52.565Z,6.20
2022-11-29T08:18:19.714Z,7.25
2022-11-29T08:20:47.108Z,6.70
2022-11-29T08:23:14.522Z,5.32
2022-11-29T08:25:41.722Z,13.32
2022-11-29T08:28:09.756Z,18.00
2022-11-29T08:30:37.177Z,12.27
2022-11-29T08:33:04.695Z,16.23
2022-11-29T08:35:32.076Z,9.82
2022-11-29T08:37:59.162Z,14.63
2022-11-29T08:40:26.401Z,38.20
2022-11-29T08:42:58.712Z,15.43
2022-11-29T08:45:25.958Z,11.02
2022-11-29T08:47:53.226Z,8.80
2022-11-29T08:50:20.526Z,9.60
2022-11-29T08:53:08.274Z,10.77
2022-11-29T08:55:40.907Z,7.93
2022-11-29T08:58:10.688Z,10.63
2022-11-29T09:00:39.225Z,15.68
2022-11-29T09:03:26.533Z,9.70
2022-11-29T09:05:54.293Z,10.02
2022-11-29T09:08:21.789Z,14.75
2022-11-29T09:10:49.789Z,10.15
2022-11-29T09:13:18.330Z,20.23
2022-11-29T09:15:45.483Z,9.50
2022-11-29T09:18:12.718Z,19.10
2022-11-29T09:20:44.141Z,9.52
2022-11-29T09:23:13.038Z,6.72
2022-11-29T09:25:40.308Z,7.35
2022-11-29T09:28:07.807Z,8.45
2022-11-29T09:30:36.751Z,8.60
2022-11-29T09:33:05.028Z,8.80
2022-11-29T09:35:32.782Z,8.50
2022-11-29T09:38:00.192Z,5.70
2022-11-29T09:40:58.232Z,5.88
2022-11-29T09:43:54.501Z,10.48
2022-11-29T09:46:45.239Z,11.55
2022-11-29T09:49:49.304Z,11.27
2022-11-29T09:52:41.136Z,5.37
2022-11-29T09:55:17.288Z,7.05
2022-11-29T09:57:44.929Z,6.68
2022-11-29T10:00:18.284Z,5.85
2022-11-29T10:02:50.902Z,7.32
2022-11-29T10:05:34.111Z,8.27
2022-11-29T10:08:08.890Z,18.33
2022-11-29T10:11:17.395Z,8.27
2022-11-29T10:13:52.510Z,8.18
2022-11-29T10:16:38.255Z,14.15
2022-11-29T10:19:18.062Z,10.55
2022-11-29T10:21:55.014Z,12.80
2022-11-29T10:24:23.581Z,5.35
2022-11-29T10:26:50.662Z,5.68
2022-11-29T10:29:17.826Z,4.43
2022-11-29T10:31:49.744Z,5.63
2022-11-29T10:34:20.732Z,7.68
2022-11-29T10:36:59.727Z,6.68
2022-11-29T10:39:43.985Z,5.80
2022-11-29T10:42:42.285Z,6.95
2022-11-29T10:45:34.596Z,5.00
2022-11-29T10:48:04.875Z,5.25
2022-11-29T10:50:35.632Z,6.00
2022-11-29T10:53:09.863Z,5.70
2022-11-29T10:55:43.986Z,7.93
2022-11-29T10:58:14.901Z,5.35
2022-11-29T11:01:00.396Z,6.88
2022-11-29T11:03:29.719Z,8.95
2022-11-29T11:06:01.292Z,5.50
2022-11-29T11:08:29.214Z,3.88
2022-11-29T11:11:01.817Z,4.80
2022-11-29T11:13:32.180Z,5.50
2022-11-29T11:16:15.315Z,6.88
2022-11-29T11:18:42.566Z,4.13
2022-11-29T11:21:12.547Z,5.38
2022-11-29T11:23:54.098Z,78.35
2022-11-29T11:26:22.176Z,6.05
2022-11-29T11:28:54.678Z,4.15
2022-11-29T11:31:36.030Z,5.75
2022-11-29T11:34:31.782Z,6.45
2022-11-29T11:37:30.669Z,5.97
2022-11-29T11:40:01.007Z,9.45
2022-11-29T11:42:39.693Z,12.63
2022-11-29T11:45:07.197Z,10.27
2022-11-29T11:47:38.332Z,9.57
2022-11-29T11:50:14.991Z,11.70
2022-11-29T11:52:54.379Z,8.15
2022-11-29T11:55:21.554Z,9.02
2022-11-29T11:58:20.217Z,7.40
2022-11-29T12:01:08.905Z,6.50
2022-11-29T12:03:39.116Z,6.28
2022-11-29T12:06:15.207Z,12.10
2022-11-29T12:08:43.684Z,10.05
2022-11-29T12:11:15.204Z,8.23
2022-11-29T12:13:49.238Z,8.68
2022-11-29T12:19:14.242Z,13.32
2022-11-29T12:21:45.016Z,13.50
2022-11-29T12:24:23.784Z,13.02
2022-11-29T12:26:58.280Z,20.42
2022-11-29T12:29:28.908Z,7.97
2022-11-29T12:32:05.643Z,6.70
2022-11-29T12:34:42.960Z,10.25
2022-11-29T12:37:43.406Z,13.57
2022-11-29T12:40:27.857Z,11.15
2022-11-29T12:43:11.468Z,7.72
2022-11-29T12:46:14.730Z,7.28
2022-11-29T12:49:11.489Z,9.18
2022-11-29T12:52:07.666Z,34.13
2022-11-29T12:55:00.852Z,14.15
2022-11-29T12:57:44.968Z,5.65
2022-11-29T13:00:14.323Z,8.88
2022-11-29T13:02:59.281Z,6.57
2022-11-29T13:05:50.817Z,7.68
2022-11-29T13:08:36.828Z,5.80
2022-11-29T13:11:24.226Z,4.85
2022-11-29T13:14:41.081Z,6.05
2022-11-29T13:17:04.015Z,5.75
2022-11-29T13:19:46.944Z,7.28
2022-11-29T13:22:32.813Z,5.35
2022-11-29T13:25:14.068Z,7.43
2022-11-29T13:27:45.457Z,8.95
2022-11-29T13:30:16.009Z,5.95
2022-11-29T13:33:27.704Z,8.52
2022-11-29T13:36:21.740Z,10.52
2022-11-29T13:39:07.220Z,10.40
2022-11-29T13:41:49.370Z,7.65
2022-11-29T13:44:30.275Z,10.30
2022-11-29T13:47:08.468Z,8.32
2022-11-29T13:50:02.340Z,7.28
2022-11-29T13:52:39.713Z,10.10
2022-11-29T13:55:29.778Z,7.82
2022-11-29T14:00:46.535Z,8.63
2022-11-29T14:03:26.167Z,7.63
2022-11-29T14:05:54.882Z,6.40
2022-11-29T14:09:01.929Z,8.32
2022-11-29T14:11:29.262Z,9.63
2022-11-29T14:14:07.853Z,6.28
2022-11-29T14:16:50.504Z,9.20
2022-11-29T14:19:21.774Z,11.10
2022-11-29T14:22:06.982Z,9.50
2022-11-29T14:24:37.580Z,8.80
2022-11-29T14:27:10.711Z,10.13
2022-11-29T14:29:53.989Z,5.33
2022-11-29T14:32:51.679Z,8.65
2022-11-29T14:35:24.553Z,8.55
2022-11-29T14:38:19.534Z,7.57
2022-11-29T14:40:59.941Z,5.22
2022-11-29T14:43:34.349Z,5.57
2022-11-29T14:46:29.521Z,5.63
2022-11-29T14:48:56.793Z,5.28
2022-11-29T14:51:26.917Z,4.78
2022-11-29T14:54:16.262Z,5.78
2022-11-29T14:56:47.006Z,6.07
2022-11-29T14:59:39.536Z,4.55
2022-11-29T15:02:25.406Z,7.10
2022-11-29T15:04:55.825Z,4.32
2022-11-29T15:07:30.167Z,4.95
2022-11-29T15:10:03.331Z,4.68
2022-11-29T15:12:37.803Z,5.77
2022-11-29T15:15:49.518Z,5.60
2022-11-29T15:18:54.874Z,4.75
2022-11-29T15:21:40.896Z,4.70
2022-11-29T15:24:14.314Z,6.25
2022-11-29T15:26:56.887Z,6.07
2022-11-29T15:29:24.946Z,14.82
2022-11-29T15:32:00.936Z,13.38
2022-11-29T15:34:34.631Z,7.65
2022-11-29T15:37:02.164Z,6.43
2022-11-29T15:39:35.677Z,8.27
2022-11-29T15:42:12.443Z,16.67
2022-11-29T15:44:45.958Z,24.15
2022-11-29T15:47:26.958Z,11.82
2022-11-29T15:49:54.772Z,18.20
2022-11-29T15:52:34.433Z,10.48
2022-11-29T15:55:11.020Z,8.32
2022-11-29T15:57:48.840Z,7.32
2022-11-29T16:00:23.207Z,7.50
2022-11-29T16:03:03.207Z,5.65
2022-11-29T16:05:30.646Z,6.05
2022-11-29T16:08:13.922Z,6.68
2022-11-29T16:10:51.853Z,5.60
2022-11-29T16:13:41.280Z,7.10
2022-11-29T16:16:19.701Z,6.05
2022-11-29T16:18:49.021Z,7.07
2022-11-29T16:21:43.431Z,6.40
2022-11-29T16:24:20.070Z,5.47
2022-11-29T16:26:50.028Z,7.43
2022-11-29T16:29:33.947Z,9.57
2022-11-29T16:32:15.263Z,6.15
2022-11-29T16:34:44.858Z,7.10
2022-11-29T16:37:22.198Z,9.43
2022-11-29T16:39:52.679Z,14.25
2022-11-29T16:42:38.593Z,9.90
2022-11-29T16:45:39.317Z,10.60
2022-11-29T16:48:27.323Z,8.88
2022-11-29T16:51:32.381Z,9.18
2022-11-29T16:56:46.123Z,7.22
2022-11-29T16:59:25.464Z,6.82
2022-11-29T17:01:55.983Z,8.93
2022-11-29T17:04:25.202Z,6.90
2022-11-29T17:06:54.848Z,6.57
2022-11-29T17:09:26.050Z,6.03
2022-11-29T17:11:54.664Z,6.65
2022-11-29T17:14:22.200Z,6.60
2022-11-29T17:16:49.973Z,7.45
2022-11-29T17:19:18.407Z,5.90
2022-11-29T17:21:45.890Z,6.05
2022-11-29T17:24:16.196Z,6.15
2022-11-29T17:26:44.330Z,6.30
2022-11-29T17:29:13.478Z,6.32
2022-11-29T17:31:43.233Z,6.35
2022-11-29T17:34:10.988Z,5.13
2022-11-29T17:36:38.881Z,5.00
2022-11-29T17:39:06.386Z,5.70
2022-11-29T17:41:34.163Z,6.90
2022-11-29T17:44:02.714Z,5.85
2022-11-29T17:46:32.569Z,6.63
2022-11-29T17:49:01.731Z,7.00
2022-11-29T17:51:51.232Z,6.68
2022-11-29T17:54:16.965Z,6.30
2022-11-29T17:56:44.522Z,7.22
2022-11-29T17:59:11.795Z,5.57
2022-11-29T18:01:39.456Z,7.15
2022-11-29T18:04:08.510Z,6.75
2022-11-29T18:06:38.158Z,7.30
2022-11-29T18:09:07.021Z,6.82
2022-11-29T18:11:45.309Z,5.82
2022-11-29T18:14:16.072Z,8.95
2022-11-29T18:16:45.835Z,7.72
2022-11-29T18:19:16.417Z,7.47
2022-11-29T18:21:43.964Z,7.80
2022-11-29T18:24:11.592Z,8.30
2022-11-29T18:26:39.551Z,6.00
2022-11-29T18:29:07.962Z,5.65
2022-11-29T18:31:36.890Z,9.13
2022-11-29T18:34:13.250Z,7.43
2022-11-29T18:36:46.017Z,7.07
2022-11-29T18:39:16.359Z,6.90
2022-11-29T18:41:45.737Z,6.57
2022-11-29T18:44:15.022Z,6.68
2022-11-29T18:46:44.223Z,8.68
2022-11-29T18:49:14.428Z,5.20
2022-11-29T18:51:44.966Z,4.05
2022-11-29T18:54:13.243Z,6.28
2022-11-29T18:56:40.876Z,7.40
2022-11-29T18:59:11.100Z,7.47
2022-11-29T19:01:43.210Z,7.88
2022-11-29T19:04:13.566Z,8.85
2022-11-29T19:06:41.200Z,5.93
2022-11-29T19:09:16.420Z,7.10
2022-11-29T19:11:43.723Z,6.88
2022-11-29T19:14:13.046Z,5.18
2022-11-29T19:16:43.063Z,8.20
2022-11-29T19:19:10.360Z,10.38
2022-11-29T19:21:40.069Z,7.68
2022-11-29T19:24:14.325Z,22.17
2022-11-29T19:26:44.783Z,10.18
2022-11-29T19:29:13.246Z,5.97
2022-11-29T19:31:40.629Z,5.28
2022-11-29T19:34:08.220Z,5.47
2022-11-29T19:36:37.546Z,4.57
2022-11-29T19:39:05.153Z,5.30
2022-11-29T19:41:34.737Z,3.40
2022-11-29T19:44:05.374Z,4.70
2022-11-29T19:46:37.493Z,4.32
2022-11-29T19:49:06.932Z,4.90
2022-11-29T19:51:34.902Z,4.55
2022-11-29T19:54:05.190Z,4.00
2022-11-29T19:56:33.110Z,5.35
2022-11-29T19:59:00.783Z,5.18
2022-11-29T20:01:37.889Z,5.00
2022-11-29T20:04:07.790Z,4.82
2022-11-29T20:06:35.651Z,3.97
2022-11-29T20:09:03.477Z,6.25
2022-11-29T20:11:30.885Z,11.73
2022-11-29T20:14:00.174Z,8.18
2022-11-29T20:16:29.497Z,5.10
2022-11-29T20:18:57.937Z,4.95
2022-11-29T20:21:30.184Z,6.70
2022-11-29T20:24:00.873Z,6.07
2022-11-29T20:26:29.677Z,6.05
2022-11-29T20:28:56.968Z,6.50
2022-11-29T20:31:24.493Z,6.70
2022-11-29T20:33:54.161Z,7.70
2022-11-29T20:36:42.694Z,7.47
2022-11-29T20:39:41.314Z,7.03
2022-11-29T20:42:20.838Z,9.25
2022-11-29T20:44:59.752Z,8.73
2022-11-29T20:47:32.039Z,9.35
2022-11-29T20:49:59.359Z,23.63
2022-11-29T20:52:35.887Z,13.00
2022-11-29T20:55:03.248Z,8.70
2022-11-29T20:57:30.526Z,6.40
2022-11-29T20:59:57.830Z,7.93
2022-11-29T21:02:25.382Z,6.90
2022-11-29T21:04:52.690Z,8.93
2022-11-29T21:07:19.931Z,10.60
2022-11-29T21:09:47.221Z,16.42
2022-11-29T21:12:14.900Z,12.27
2022-11-29T21:14:43.156Z,22.23
2022-11-29T21:17:10.645Z,8.85
2022-11-29T21:19:39.746Z,11.75
2022-11-29T21:22:16.365Z,11.82
2022-11-29T21:25:10.350Z,17.90
2022-11-29T21:27:38.152Z,9.95
2022-11-29T21:30:06.944Z,7.53
2022-11-29T21:32:34.824Z,6.57
2022-11-29T21:35:02.150Z,11.95
2022-11-29T21:37:31.106Z,8.75
2022-11-29T21:39:58.457Z,8.35
2022-11-29T21:42:25.717Z,10.55
2022-11-29T21:44:53.019Z,8.23
2022-11-29T21:47:20.361Z,9.30
2022-11-29T21:49:47.679Z,11.02
2022-11-29T21:52:20.717Z,7.43
2022-11-29T21:54:49.785Z,7.55
2022-11-29T21:57:17.021Z,12.20
2022-11-29T21:59:44.302Z,8.43
2022-11-29T22:02:11.751Z,9.50
2022-11-29T22:04:39.052Z,9.80
2022-11-29T22:07:06.345Z,12.98
2022-11-29T22:09:33.670Z,8.68
2022-11-29T22:12:06.605Z,15.63
2022-11-29T22:14:47.086Z,12.60
2022-11-29T22:17:14.465Z,13.80
2022-11-29T22:19:41.771Z,12.20
2022-11-29T22:22:11.020Z,12.70
2022-11-29T22:24:38.688Z,13.43
2022-11-29T22:27:06.052Z,11.52
2022-11-29T22:29:33.310Z,8.70
2022-11-29T22:32:01.462Z,9.77
2022-11-29T22:34:28.792Z,10.98
2022-11-29T22:36:56.162Z,12.05
2022-11-29T22:39:24.249Z,16.63
2022-11-29T22:41:54.728Z,11.90
2022-11-29T22:44:23.996Z,12.02
2022-11-29T22:46:51.710Z,10.23
2022-11-29T22:49:18.950Z,9.80
2022-11-29T22:51:46.261Z,14.85
2022-11-29T22:54:16.684Z,17.98
2022-11-29T22:56:45.347Z,24.30
2022-11-29T22:59:12.975Z,25.50
2022-11-29T23:01:41.395Z,17.83
2022-11-29T23:04:10.512Z,12.70
2022-11-29T23:06:40.959Z,11.88
2022-11-29T23:09:17.142Z,15.65
2022-11-29T23:11:45.866Z,13.20
2022-11-29T23:14:13.630Z,11.93
2022-11-29T23:16:41.187Z,9.98
2022-11-29T23:19:08.826Z,10.07
2022-11-29T23:21:38.695Z,9.43
2022-11-29T23:24:06.395Z,15.40
2022-11-29T23:26:39.917Z,12.27
2022-11-29T23:29:10.004Z,10.23
2022-11-29T23:31:37.698Z,17.35
2022-11-29T23:34:05.629Z,13.32
2022-11-29T23:36:33.020Z,11.63
2022-11-29T23:39:00.677Z,11.27
2022-11-29T23:41:27.928Z,15.85
2022-11-29T23:43:55.204Z,13.77
2022-11-29T23:46:24.337Z,10.95
2022-11-29T23:48:52.417Z,10.25
2022-11-29T23:51:20.493Z,13.15
2022-11-29T23:53:52.389Z,8.88
2022-11-29T23:56:20.112Z,10.27
2022-11-29T23:58:48.151Z,10.32
